createdAt,value
2017-08-01T00:01:09.751Z,72.00
2017-08-01T00:03:36.535Z,71.90
2017-08-01T00:06:03.347Z,71.80
2017-08-01T05:59:51.191Z,79.50
2017-08-01T06:02:18.389Z,78.40
2017-08-01T06:04:45.420Z,77.50
2017-08-01T06:07:12.167Z,77.70
2017-08-01T06:09:39.004Z,77.20
2017-08-01T06:12:05.796Z,77.40
2017-08-01T06:14:32.595Z,77.00
2017-08-01T06:16:59.792Z,76.20
2017-08-01T06:19:26.553Z,75.60
2017-08-01T06:21:53.363Z,75.70
2017-08-01T06:24:20.763Z,75.20
2017-08-01T06:26:47.980Z,75.50
2017-08-01T06:29:15.540Z,74.70
2017-08-01T06:31:42.499Z,73.70
2017-08-01T06:34:09.579Z,74.00
2017-08-01T06:36:36.815Z,73.70
2017-08-01T06:39:04.304Z,73.30
2017-08-01T06:41:31.208Z,73.40
2017-08-01T06:43:58.183Z,75.20
2017-08-01T06:46:25.455Z,75.20
2017-08-01T06:48:53.261Z,75.80
2017-08-01T06:51:20.154Z,75.00
2017-08-01T06:53:47.061Z,75.80
2017-08-01T06:56:13.891Z,76.20
2017-08-01T06:58:40.649Z,75.80
2017-08-01T07:01:07.743Z,75.00
2017-08-01T07:03:34.769Z,74.60
2017-08-01T07:06:02.185Z,72.20
2017-08-01T07:08:29.059Z,72.60
2017-08-01T07:10:56.360Z,73.60
2017-08-01T07:13:23.604Z,72.70
2017-08-01T07:15:50.724Z,73.90
2017-08-01T07:18:17.552Z,72.70
2017-08-01T07:20:44.801Z,73.40
2017-08-01T07:23:12.076Z,73.00
2017-08-01T07:25:39.571Z,72.00
2017-08-01T07:28:06.324Z,71.80
2017-08-01T07:30:33.084Z,71.50
2017-08-01T07:33:00.519Z,71.30
2017-08-01T07:35:27.330Z,71.80
2017-08-01T07:37:54.068Z,71.70
2017-08-01T07:40:21.491Z,70.40
2017-08-01T07:42:48.426Z,70.20
2017-08-01T07:45:15.558Z,69.30
2017-08-01T07:47:42.397Z,69.90
2017-08-01T07:50:09.476Z,70.40
2017-08-01T07:52:36.339Z,71.50
2017-08-01T07:55:03.564Z,71.30
2017-08-01T07:57:30.396Z,71.10
2017-08-01T07:59:57.145Z,72.10
2017-08-01T08:02:24.369Z,70.70
2017-08-01T08:04:51.732Z,70.60
2017-08-01T08:07:18.646Z,69.30
2017-08-01T08:09:45.387Z,69.80
2017-08-01T08:12:12.267Z,69.40
2017-08-01T08:14:39.280Z,69.60
2017-08-01T08:17:06.203Z,69.00
2017-08-01T08:19:33.035Z,68.40
2017-08-01T08:21:59.799Z,69.50
2017-08-01T08:24:26.654Z,67.30
2017-08-01T08:26:54.403Z,66.40
2017-08-01T08:29:21.448Z,67.30
2017-08-01T08:31:48.784Z,67.00
2017-08-01T08:34:15.544Z,64.90
2017-08-01T08:36:42.308Z,65.10
2017-08-01T08:39:11.119Z,64.90
2017-08-01T08:41:37.881Z,64.40
2017-08-01T08:44:04.663Z,65.60
2017-08-01T08:46:31.493Z,64.30
2017-08-01T08:48:58.247Z,65.10
2017-08-01T08:51:25.181Z,62.10
2017-08-01T08:53:52.099Z,62.80
2017-08-01T08:56:19.049Z,63.90
2017-08-01T08:58:45.904Z,66.00
2017-08-01T09:01:12.993Z,65.60
2017-08-01T09:03:40.075Z,66.00
2017-08-01T09:06:06.874Z,67.20
2017-08-01T09:08:33.678Z,64.80
2017-08-01T09:11:00.545Z,64.80
2017-08-01T09:13:27.320Z,65.40
2017-08-01T09:15:54.124Z,64.70
2017-08-01T09:18:20.975Z,65.10
2017-08-01T09:20:47.904Z,64.90
2017-08-01T09:23:14.746Z,63.90
2017-08-01T09:25:41.554Z,64.40
2017-08-01T09:28:08.400Z,63.10
2017-08-01T09:30:35.293Z,62.50
2017-08-01T09:33:02.090Z,63.40
2017-08-01T09:35:29.027Z,63.60
2017-08-01T09:37:55.836Z,63.80
2017-08-01T09:40:22.712Z,66.50
2017-08-01T09:42:49.539Z,65.20
2017-08-01T09:45:18.932Z,64.00
2017-08-01T09:47:45.705Z,65.10
2017-08-01T09:50:13.424Z,65.20
2017-08-01T09:52:40.266Z,66.60
2017-08-01T09:55:07.095Z,64.80
2017-08-01T09:57:33.961Z,63.30
2017-08-01T10:00:00.764Z,61.70
2017-08-01T10:02:27.527Z,62.40
2017-08-01T10:04:54.509Z,63.30
2017-08-01T10:07:21.308Z,61.20
2017-08-01T10:09:48.182Z,61.20
2017-08-01T10:12:15.103Z,61.10
2017-08-01T10:14:41.874Z,60.60
2017-08-01T10:17:08.717Z,60.80
2017-08-01T10:19:35.498Z,60.80
2017-08-01T10:22:02.502Z,60.20
2017-08-01T10:24:29.375Z,58.80
2017-08-01T10:26:56.145Z,58.90
2017-08-01T10:29:23.581Z,59.10
2017-08-01T10:31:50.389Z,59.10
2017-08-01T10:34:17.151Z,57.80
2017-08-01T10:36:43.962Z,58.60
2017-08-01T10:39:10.771Z,59.50
2017-08-01T10:41:37.538Z,59.60
2017-08-01T10:44:04.365Z,58.90
2017-08-01T10:46:31.096Z,57.80
2017-08-01T10:48:57.835Z,57.50
2017-08-01T10:51:24.622Z,58.00
2017-08-01T10:53:51.355Z,57.50
2017-08-01T10:56:18.108Z,57.30
2017-08-01T10:58:44.908Z,57.80
2017-08-01T11:01:11.632Z,56.80
2017-08-01T11:03:40.135Z,57.80
2017-08-01T11:06:06.986Z,57.10
2017-08-01T11:08:33.796Z,56.70
2017-08-01T11:11:00.541Z,56.20
2017-08-01T11:13:27.262Z,55.50
2017-08-01T11:15:54.187Z,55.10
2017-08-01T11:18:21.096Z,56.20
2017-08-01T11:20:47.849Z,55.70
2017-08-01T11:23:14.709Z,55.40
2017-08-01T11:25:41.444Z,56.60
2017-08-01T11:28:08.450Z,55.60
2017-08-01T11:30:35.647Z,56.10
2017-08-01T11:33:02.781Z,55.10
2017-08-01T11:35:33.331Z,55.80
2017-08-01T11:38:00.072Z,55.00
2017-08-01T11:40:26.901Z,55.40
2017-08-01T11:42:53.647Z,55.60
2017-08-01T11:45:20.401Z,55.50
2017-08-01T11:47:47.197Z,54.60
2017-08-01T11:50:14.008Z,55.60
2017-08-01T11:52:40.785Z,54.50
2017-08-01T11:55:07.880Z,55.20
2017-08-01T11:57:34.669Z,54.40
2017-08-01T12:00:01.603Z,53.70
2017-08-01T12:02:28.348Z,54.10
2017-08-01T12:04:55.116Z,54.20
2017-08-01T12:07:22.086Z,53.50
2017-08-01T12:09:48.887Z,52.40
2017-08-01T12:12:15.691Z,53.40
2017-08-01T12:14:42.484Z,53.10
2017-08-01T12:17:09.222Z,53.60
2017-08-01T12:19:35.959Z,53.80
2017-08-01T12:22:02.734Z,53.10
2017-08-01T12:24:29.476Z,53.00
2017-08-01T12:26:56.229Z,52.80
2017-08-01T12:29:23.029Z,53.40
2017-08-01T12:31:49.930Z,52.80
2017-08-01T12:34:16.743Z,51.20
2017-08-01T12:36:43.552Z,51.60
2017-08-01T12:39:10.468Z,52.20
2017-08-01T12:41:37.351Z,52.30
2017-08-01T12:44:04.170Z,51.20
2017-08-01T12:46:31.036Z,50.70
2017-08-01T12:48:57.840Z,50.20
2017-08-01T12:51:24.729Z,50.70
2017-08-01T12:53:51.525Z,49.90
2017-08-01T12:56:18.433Z,49.70
2017-08-01T12:58:45.420Z,50.40
2017-08-01T13:01:12.225Z,50.30
2017-08-01T13:03:39.051Z,50.00
2017-08-01T13:06:05.929Z,50.30
2017-08-01T13:08:32.736Z,50.00
2017-08-01T13:10:59.600Z,49.80
2017-08-01T13:13:26.432Z,48.80
2017-08-01T13:15:53.185Z,49.10
2017-08-01T13:18:20.067Z,48.70
2017-08-01T13:20:46.833Z,48.50
2017-08-01T13:23:13.634Z,49.40
2017-08-01T13:25:40.725Z,48.20
2017-08-01T13:28:07.605Z,48.10
2017-08-01T13:30:34.502Z,48.10
2017-08-01T13:33:01.309Z,51.40
2017-08-01T13:35:28.187Z,50.70
2017-08-01T13:37:55.060Z,50.70
2017-08-01T13:40:21.866Z,52.80
2017-08-01T13:42:48.607Z,49.90
2017-08-01T13:45:15.350Z,51.30
2017-08-01T13:47:42.237Z,50.80
2017-08-01T13:50:09.035Z,50.20
2017-08-01T13:52:35.779Z,51.20
2017-08-01T13:55:02.806Z,50.50
2017-08-01T13:57:29.584Z,50.00
2017-08-01T13:59:56.333Z,48.40
2017-08-01T14:02:23.179Z,49.50
2017-08-01T14:04:49.953Z,49.60
2017-08-01T14:07:16.705Z,49.80
2017-08-01T14:09:43.600Z,50.10
2017-08-01T14:12:10.408Z,47.80
2017-08-01T14:14:37.176Z,50.10
2017-08-01T14:17:04.003Z,50.60
2017-08-01T14:19:30.737Z,49.80
2017-08-01T14:21:58.087Z,48.20
2017-08-01T14:24:24.828Z,49.20
2017-08-01T14:26:51.563Z,50.30
2017-08-01T14:29:18.367Z,49.20
2017-08-01T14:31:45.103Z,47.60
2017-08-01T14:34:11.860Z,49.90
2017-08-01T14:36:38.727Z,51.70
2017-08-01T14:39:05.544Z,50.30
2017-08-01T14:41:32.424Z,50.30
2017-08-01T14:43:59.297Z,48.00
2017-08-01T14:46:26.669Z,50.60
2017-08-01T14:48:53.468Z,50.60
2017-08-01T14:51:20.691Z,48.70
2017-08-01T14:53:48.233Z,48.20
2017-08-01T14:56:15.569Z,48.50
2017-08-01T14:58:42.365Z,48.70
2017-08-01T15:01:09.176Z,47.30
2017-08-01T15:03:35.921Z,48.10
2017-08-01T15:06:02.804Z,47.80
2017-08-01T15:08:29.988Z,45.60
2017-08-01T15:10:57.334Z,45.90
2017-08-01T15:13:24.852Z,46.90
2017-08-01T15:15:51.675Z,46.10
2017-08-01T15:18:18.432Z,47.70
2017-08-01T15:20:45.795Z,46.90
2017-08-01T15:23:12.814Z,47.50
2017-08-01T15:25:39.917Z,48.60
2017-08-01T15:28:07.176Z,51.20
2017-08-01T15:30:34.502Z,53.10
2017-08-01T15:33:01.404Z,49.10
2017-08-01T15:35:28.617Z,50.10
2017-08-01T15:37:55.928Z,51.40
2017-08-01T15:40:23.346Z,52.90
2017-08-01T15:42:50.896Z,53.90
2017-08-01T15:45:17.710Z,55.20
2017-08-01T15:47:44.809Z,56.00
2017-08-01T15:50:12.023Z,54.70
2017-08-01T15:52:38.819Z,55.50
2017-08-01T15:55:05.590Z,56.20
2017-08-01T15:57:32.417Z,56.60
2017-08-01T15:59:59.275Z,56.70
2017-08-01T16:02:26.666Z,57.60
2017-08-01T16:04:53.432Z,55.30
2017-08-01T16:07:20.244Z,56.60
2017-08-01T16:09:47.000Z,55.70
2017-08-01T16:12:13.947Z,56.10
2017-08-01T16:14:40.705Z,57.20
2017-08-01T16:17:07.508Z,57.40
2017-08-01T16:19:34.259Z,56.60
2017-08-01T16:22:01.063Z,58.50
2017-08-01T16:24:27.927Z,60.20
2017-08-01T16:26:55.103Z,60.30
2017-08-01T16:29:22.696Z,60.50
2017-08-01T16:31:49.976Z,60.10
2017-08-01T16:34:17.440Z,61.20
2017-08-01T16:36:44.448Z,62.30
2017-08-01T16:39:11.784Z,61.50
2017-08-01T16:41:39.006Z,62.30
2017-08-01T16:44:05.761Z,62.20
2017-08-01T16:46:32.501Z,62.20
2017-08-01T16:48:59.464Z,62.30
2017-08-01T16:51:26.289Z,63.20
2017-08-01T16:53:53.109Z,63.40
2017-08-01T16:56:19.989Z,63.40
2017-08-01T16:58:46.996Z,64.10
2017-08-01T17:01:14.109Z,64.90
2017-08-01T17:03:42.380Z,64.50
2017-08-01T17:06:09.384Z,64.10
2017-08-01T17:08:36.852Z,64.40
2017-08-01T17:11:04.734Z,63.90
2017-08-01T17:13:32.145Z,65.50
2017-08-01T17:15:59.025Z,65.90
2017-08-01T17:18:26.063Z,65.00
2017-08-01T17:20:53.296Z,64.50
2017-08-01T17:23:20.759Z,65.50
2017-08-01T17:25:48.118Z,64.90
2017-08-01T17:28:15.072Z,64.70
2017-08-01T17:30:42.384Z,65.70
2017-08-01T17:33:09.669Z,62.20
2017-08-01T17:35:37.145Z,61.40
2017-08-01T17:38:04.601Z,59.90
2017-08-01T17:40:31.404Z,56.70
2017-08-01T17:42:58.553Z,54.90
2017-08-01T17:45:25.932Z,57.40
2017-08-01T17:47:53.420Z,60.50
2017-08-01T17:50:20.777Z,68.20
2017-08-01T17:52:47.756Z,71.80
2017-08-01T17:55:14.938Z,75.00
2017-08-01T17:57:42.977Z,78.50
2017-08-01T18:00:10.513Z,79.30
2017-08-01T18:02:37.728Z,82.90
2017-08-01T18:05:05.043Z,82.20
2017-08-01T18:07:31.977Z,83.80
2017-08-01T18:09:59.132Z,80.80
2017-08-01T18:12:26.679Z,78.60
2017-08-01T18:14:54.339Z,78.60
2017-08-01T18:17:21.620Z,80.40
2017-08-01T18:19:48.988Z,80.80
2017-08-01T18:22:15.985Z,80.60
2017-08-01T18:24:43.109Z,81.30
2017-08-01T18:27:10.323Z,83.80
2017-08-01T18:29:37.149Z,82.90
2017-08-01T18:32:03.982Z,84.70
2017-08-01T18:34:30.723Z,85.00
2017-08-01T18:36:57.797Z,84.20
2017-08-01T18:39:24.552Z,85.20
2017-08-01T18:41:51.360Z,84.60
2017-08-01T18:44:18.232Z,84.80
2017-08-01T18:46:45.097Z,82.20
2017-08-01T18:49:11.908Z,80.00
2017-08-01T18:51:39.013Z,80.20
2017-08-01T18:54:05.896Z,80.50
2017-08-01T18:56:32.754Z,80.40
2017-08-01T18:58:59.589Z,81.20
2017-08-01T19:01:26.841Z,82.30
2017-08-01T19:03:53.665Z,82.30
2017-08-01T19:06:20.485Z,83.60
2017-08-01T19:08:47.350Z,84.30
2017-08-01T19:11:14.233Z,84.00
2017-08-01T19:13:41.000Z,84.10
2017-08-01T19:16:07.764Z,84.80
2017-08-01T19:18:35.036Z,85.50
2017-08-01T19:21:02.462Z,85.40
2017-08-01T19:23:29.284Z,84.80
2017-08-01T19:25:56.166Z,82.50
2017-08-01T19:28:23.185Z,82.90
2017-08-01T19:30:50.024Z,81.80
2017-08-01T19:33:16.852Z,81.80
2017-08-01T19:35:43.608Z,81.10
2017-08-01T19:38:11.444Z,78.20
2017-08-01T19:40:38.362Z,78.30
2017-08-01T19:43:05.133Z,79.30
2017-08-01T19:45:31.948Z,75.80
2017-08-01T19:47:58.758Z,70.80
2017-08-01T19:50:25.513Z,67.50
2017-08-01T19:52:52.352Z,64.00
2017-08-01T19:55:19.645Z,66.60
2017-08-01T19:57:46.395Z,68.10
2017-08-01T20:00:13.567Z,73.00
2017-08-01T20:02:40.728Z,75.00
2017-08-01T20:05:07.547Z,77.00
2017-08-01T20:07:34.417Z,78.20
2017-08-01T20:10:01.181Z,78.30
2017-08-01T20:12:28.087Z,77.90
2017-08-01T20:14:55.168Z,79.50
2017-08-01T20:17:22.479Z,79.10
2017-08-01T20:19:49.284Z,77.40
2017-08-01T20:22:16.473Z,75.70
2017-08-01T20:24:43.292Z,73.60
2017-08-01T20:27:11.050Z,72.60
2017-08-01T20:29:39.377Z,70.00
2017-08-01T20:32:06.156Z,64.50
2017-08-01T20:34:33.079Z,64.30
2017-08-01T20:36:59.864Z,61.00
2017-08-01T20:39:26.844Z,58.60
2017-08-01T20:41:53.770Z,58.90
2017-08-01T20:44:20.576Z,57.70
2017-08-01T20:46:47.449Z,55.60
2017-08-01T20:49:14.200Z,62.40
2017-08-01T20:51:41.028Z,66.20
2017-08-01T20:54:07.821Z,68.60
2017-08-01T20:56:34.980Z,69.40
2017-08-01T20:59:01.785Z,71.80
2017-08-01T21:01:28.603Z,72.50
2017-08-01T21:03:55.430Z,72.80
2017-08-01T21:06:23.574Z,72.90
2017-08-01T21:08:50.458Z,73.00
2017-08-01T21:11:17.422Z,70.10
2017-08-01T21:13:44.177Z,71.20
2017-08-01T21:16:10.977Z,72.40
2017-08-01T21:18:37.761Z,72.10
2017-08-01T21:21:04.545Z,76.10
2017-08-01T21:23:31.865Z,75.50
2017-08-01T21:25:58.601Z,75.10
2017-08-01T21:28:25.340Z,75.50
2017-08-01T21:30:52.115Z,76.30
2017-08-01T21:33:18.867Z,76.50
2017-08-01T21:35:45.646Z,76.50
2017-08-01T21:38:12.379Z,77.00
2017-08-01T21:40:39.348Z,77.30
2017-08-01T21:43:06.141Z,77.40
2017-08-01T21:45:32.940Z,77.30
2017-08-01T21:47:59.758Z,78.00
2017-08-01T21:50:27.136Z,78.20
2017-08-01T21:52:54.541Z,78.70
2017-08-01T21:55:21.767Z,80.40
2017-08-01T21:57:48.995Z,78.90
2017-08-01T22:00:19.458Z,79.70
2017-08-01T22:02:46.225Z,79.60
2017-08-01T22:05:13.109Z,79.90
2017-08-01T22:07:39.851Z,81.90
2017-08-01T22:10:06.564Z,80.40
2017-08-01T22:12:33.373Z,80.90
2017-08-01T22:15:00.107Z,81.60
2017-08-01T22:17:26.908Z,82.10
2017-08-01T22:19:53.771Z,82.80
2017-08-01T22:22:20.727Z,83.10
2017-08-01T22:24:47.543Z,82.80
2017-08-01T22:27:15.346Z,83.00
2017-08-01T22:29:42.540Z,83.30
2017-08-01T22:32:09.348Z,82.90
2017-08-01T22:34:36.237Z,83.20
2017-08-01T22:37:03.070Z,83.60
2017-08-01T22:39:29.885Z,83.40
2017-08-01T22:41:57.544Z,84.10
2017-08-01T22:44:24.391Z,83.80
2017-08-01T22:46:51.992Z,84.00
2017-08-01T22:49:18.847Z,83.60
2017-08-01T22:51:46.932Z,84.50
2017-08-01T22:54:13.752Z,83.20
2017-08-01T22:56:40.519Z,84.20
2017-08-01T22:59:07.320Z,83.10
2017-08-01T23:01:34.126Z,84.00
2017-08-01T23:04:01.328Z,83.90
2017-08-01T23:06:28.729Z,84.40
2017-08-01T23:08:55.549Z,84.10
2017-08-01T23:11:22.588Z,84.00
2017-08-01T23:13:50.044Z,83.90
2017-08-01T23:16:17.372Z,85.20
2017-08-01T23:18:44.140Z,85.70
2017-08-01T23:21:11.247Z,85.70
2017-08-01T23:23:38.480Z,85.20
2017-08-01T23:26:05.712Z,85.70
2017-08-01T23:28:32.662Z,85.20
2017-08-01T23:30:59.500Z,85.60
2017-08-01T23:33:26.880Z,86.10
2017-08-01T23:35:54.676Z,85.90
2017-08-01T23:38:22.138Z,85.50
2017-08-01T23:40:49.113Z,85.30
2017-08-01T23:43:15.876Z,84.70
2017-08-01T23:45:43.303Z,84.50
2017-08-01T23:48:10.126Z,85.10
2017-08-01T23:50:37.224Z,85.10
2017-08-01T23:53:04.180Z,86.20
2017-08-01T23:55:31.084Z,86.00
2017-08-01T23:57:57.842Z,86.20
